sensor_id;sensor_type;location;lat;lon;timestamp;temperature;humidity
22153;DHT22;11242;50.536;12.688;2022-12-16T00:00:24;-5.00;99.90
22153;DHT22;11242;50.536;12.688;2022-12-16T00:02:51;-4.90;99.90
22153;DHT22;11242;50.536;12.688;2022-12-16T00:05:16;-4.90;99.90
22153;DHT22;11242;50.536;12.688;2022-12-16T00:07:45;-4.90;99.90
22153;DHT22;11242;50.536;12.688;2022-12-16T00:10:11;-4.90;99.90
22153;DHT22;11242;50.536;12.688;2022-12-16T00:12:36;-4.90;99.90
22153;DHT22;11242;50.536;12.688;2022-12-16T00:15:02;-4.90;99.90
22153;DHT22;11242;50.536;12.688;2022-12-16T00:17:28;-4.80;99.90
22153;DHT22;11242;50.536;12.688;2022-12-16T00:19:53;-4.80;99.90
22153;DHT22;11242;50.536;12.688;2022-12-16T00:22:23;-4.80;99.90
22153;DHT22;11242;50.536;12.688;2022-12-16T00:24:49;-4.70;99.90
22153;DHT22;11242;50.536;12.688;2022-12-16T00:27:14;-4.70;99.90
22153;DHT22;11242;50.536;12.688;2022-12-16T00:29:40;-4.70;99.90
22153;DHT22;11242;50.536;12.688;2022-12-16T00:32:05;-4.70;99.90
22153;DHT22;11242;50.536;12.688;2022-12-16T00:34:31;-4.70;99.90
22153;DHT22;11242;50.536;12.688;2022-12-16T00:36:58;-4.60;99.90
22153;DHT22;11242;50.536;12.688;2022-12-16T00:39:23;-4.60;99.90
22153;DHT22;11242;50.536;12.688;2022-12-16T00:41:50;-4.60;99.90
22153;DHT22;11242;50.536;12.688;2022-12-16T00:44:16;-4.60;99.90
22153;DHT22;11242;50.536;12.688;2022-12-16T00:46:41;-4.60;99.90
22153;DHT22;11242;50.536;12.688;2022-12-16T00:49:07;-4.60;99.90
22153;DHT22;11242;50.536;12.688;2022-12-16T00:51:33;-4.60;99.90
22153;DHT22;11242;50.536;12.688;2022-12-16T00:53:58;-4.50;99.90
22153;DHT22;11242;50.536;12.688;2022-12-16T00:56:24;-4.60;99.90
22153;DHT22;11242;50.536;12.688;2022-12-16T00:58:50;-4.60;99.90
22153;DHT22;11242;50.536;12.688;2022-12-16T01:01:15;-4.60;99.90
22153;DHT22;11242;50.536;12.688;2022-12-16T01:03:41;-4.50;99.90
22153;DHT22;11242;50.536;12.688;2022-12-16T01:06:13;-4.50;99.90
22153;DHT22;11242;50.536;12.688;2022-12-16T01:08:39;-4.50;99.90
22153;DHT22;11242;50.536;12.688;2022-12-16T01:11:05;-4.40;99.90
22153;DHT22;11242;50.536;12.688;2022-12-16T01:13:30;-4.40;99.90
22153;DHT22;11242;50.536;12.688;2022-12-16T01:16:00;-4.30;99.90
22153;DHT22;11242;50.536;12.688;2022-12-16T01:18:29;-4.30;99.90
22153;DHT22;11242;50.536;12.688;2022-12-16T01:21:01;-4.30;99.90
22153;DHT22;11242;50.536;12.688;2022-12-16T01:23:27;-4.30;99.90
22153;DHT22;11242;50.536;12.688;2022-12-16T01:25:57;-4.30;99.90
22153;DHT22;11242;50.536;12.688;2022-12-16T01:28:23;-4.30;99.90
22153;DHT22;11242;50.536;12.688;2022-12-16T01:30:57;-4.30;99.90
22153;DHT22;11242;50.536;12.688;2022-12-16T01:33:30;-4.20;99.90
22153;DHT22;11242;50.536;12.688;2022-12-16T01:36:04;-4.20;99.90
22153;DHT22;11242;50.536;12.688;2022-12-16T01:38:31;-4.20;99.90
22153;DHT22;11242;50.536;12.688;2022-12-16T01:40:57;-4.30;99.90
22153;DHT22;11242;50.536;12.688;2022-12-16T01:43:31;-4.30;99.90
22153;DHT22;11242;50.536;12.688;2022-12-16T01:46:15;-4.40;99.90
22153;DHT22;11242;50.536;12.688;2022-12-16T01:51:29;-4.30;99.90
22153;DHT22;11242;50.536;12.688;2022-12-16T01:54:05;-4.30;99.90
22153;DHT22;11242;50.536;12.688;2022-12-16T01:56:33;-4.30;99.90
22153;DHT22;11242;50.536;12.688;2022-12-16T01:59:00;-4.30;99.90
22153;DHT22;11242;50.536;12.688;2022-12-16T02:01:26;-4.30;99.90
22153;DHT22;11242;50.536;12.688;2022-12-16T02:03:53;-4.30;99.90
22153;DHT22;11242;50.536;12.688;2022-12-16T02:06:20;-4.40;99.90
22153;DHT22;11242;50.536;12.688;2022-12-16T02:08:46;-4.30;99.90
22153;DHT22;11242;50.536;12.688;2022-12-16T02:32:20;-4.20;99.90
22153;DHT22;11242;50.536;12.688;2022-12-16T02:40:16;-4.30;99.90
22153;DHT22;11242;50.536;12.688;2022-12-16T02:42:50;-4.30;99.90
22153;DHT22;11242;50.536;12.688;2022-12-16T02:45:28;-4.30;99.90
22153;DHT22;11242;50.536;12.688;2022-12-16T02:47:55;-4.30;99.90
22153;DHT22;11242;50.536;12.688;2022-12-16T02:50:43;-4.30;99.90
22153;DHT22;11242;50.536;12.688;2022-12-16T02:53:10;-4.40;99.90
22153;DHT22;11242;50.536;12.688;2022-12-16T02:59:07;-4.30;99.90
22153;DHT22;11242;50.536;12.688;2022-12-16T03:01:46;-4.40;99.90
22153;DHT22;11242;50.536;12.688;2022-12-16T03:06:50;-4.30;99.90
22153;DHT22;11242;50.536;12.688;2022-12-16T03:09:24;-4.30;99.90
22153;DHT22;11242;50.536;12.688;2022-12-16T03:11:53;-4.30;99.90
22153;DHT22;11242;50.536;12.688;2022-12-16T03:14:22;-4.30;99.90
22153;DHT22;11242;50.536;12.688;2022-12-16T03:16:50;-4.30;99.90
22153;DHT22;11242;50.536;12.688;2022-12-16T03:19:16;-4.40;99.90
22153;DHT22;11242;50.536;12.688;2022-12-16T03:22:03;-4.40;99.90
22153;DHT22;11242;50.536;12.688;2022-12-16T03:24:31;-4.40;99.90
22153;DHT22;11242;50.536;12.688;2022-12-16T03:27:12;-4.40;99.90
22153;DHT22;11242;50.536;12.688;2022-12-16T03:35:13;-4.40;99.90
22153;DHT22;11242;50.536;12.688;2022-12-16T03:37:42;-4.40;99.90
22153;DHT22;11242;50.536;12.688;2022-12-16T03:40:09;-4.30;99.90
22153;DHT22;11242;50.536;12.688;2022-12-16T03:42:36;-4.30;99.90
22153;DHT22;11242;50.536;12.688;2022-12-16T03:45:04;-4.40;99.90
22153;DHT22;11242;50.536;12.688;2022-12-16T03:47:31;-4.30;99.90
22153;DHT22;11242;50.536;12.688;2022-12-16T03:49:56;-4.30;99.90
22153;DHT22;11242;50.536;12.688;2022-12-16T03:52:22;-4.40;99.90
22153;DHT22;11242;50.536;12.688;2022-12-16T03:54:48;-4.40;99.90
22153;DHT22;11242;50.536;12.688;2022-12-16T03:57:14;-4.40;99.90
22153;DHT22;11242;50.536;12.688;2022-12-16T03:59:39;-4.40;99.90
22153;DHT22;11242;50.536;12.688;2022-12-16T04:02:05;-4.40;99.90
22153;DHT22;11242;50.536;12.688;2022-12-16T04:04:30;-4.40;99.90
22153;DHT22;11242;50.536;12.688;2022-12-16T04:06:56;-4.40;99.90
22153;DHT22;11242;50.536;12.688;2022-12-16T04:09:40;-4.40;99.90
22153;DHT22;11242;50.536;12.688;2022-12-16T04:12:07;-4.30;99.90
22153;DHT22;11242;50.536;12.688;2022-12-16T04:14:52;-4.30;99.90
22153;DHT22;11242;50.536;12.688;2022-12-16T04:17:36;-4.20;99.90
22153;DHT22;11242;50.536;12.688;2022-12-16T04:20:24;-4.30;99.90
22153;DHT22;11242;50.536;12.688;2022-12-16T04:23:11;-4.20;99.90
22153;DHT22;11242;50.536;12.688;2022-12-16T04:25:55;-4.20;99.90
22153;DHT22;11242;50.536;12.688;2022-12-16T04:28:21;-4.10;99.90
22153;DHT22;11242;50.536;12.688;2022-12-16T04:30:46;-4.10;99.90
22153;DHT22;11242;50.536;12.688;2022-12-16T04:33:13;-4.10;99.90
22153;DHT22;11242;50.536;12.688;2022-12-16T04:35:58;-4.00;99.90
22153;DHT22;11242;50.536;12.688;2022-12-16T04:38:42;-4.00;99.90
22153;DHT22;11242;50.536;12.688;2022-12-16T04:41:27;-4.00;99.90
22153;DHT22;11242;50.536;12.688;2022-12-16T04:44:11;-3.90;99.90
22153;DHT22;11242;50.536;12.688;2022-12-16T04:46:55;-4.00;99.90
22153;DHT22;11242;50.536;12.688;2022-12-16T04:49:42;-3.90;99.90
22153;DHT22;11242;50.536;12.688;2022-12-16T04:52:26;-3.90;99.90
22153;DHT22;11242;50.536;12.688;2022-12-16T04:55:11;-4.00;99.90
22153;DHT22;11242;50.536;12.688;2022-12-16T04:57:57;-4.00;99.90
22153;DHT22;11242;50.536;12.688;2022-12-16T05:00:43;-4.00;99.90
22153;DHT22;11242;50.536;12.688;2022-12-16T05:03:28;-4.10;99.90
22153;DHT22;11242;50.536;12.688;2022-12-16T05:06:12;-4.10;99.90
22153;DHT22;11242;50.536;12.688;2022-12-16T05:08:57;-4.10;99.90
22153;DHT22;11242;50.536;12.688;2022-12-16T05:11:41;-4.20;99.90
22153;DHT22;11242;50.536;12.688;2022-12-16T05:14:26;-4.20;99.90
22153;DHT22;11242;50.536;12.688;2022-12-16T05:17:12;-4.20;99.90
22153;DHT22;11242;50.536;12.688;2022-12-16T05:19:56;-4.30;99.90
22153;DHT22;11242;50.536;12.688;2022-12-16T05:22:41;-4.30;99.90
22153;DHT22;11242;50.536;12.688;2022-12-16T05:25:25;-4.30;99.90
22153;DHT22;11242;50.536;12.688;2022-12-16T05:28:12;-4.30;99.90
22153;DHT22;11242;50.536;12.688;2022-12-16T05:30:57;-4.40;99.90
22153;DHT22;11242;50.536;12.688;2022-12-16T05:33:41;-4.40;99.90
22153;DHT22;11242;50.536;12.688;2022-12-16T05:36:27;-4.50;99.90
22153;DHT22;11242;50.536;12.688;2022-12-16T05:39:11;-4.50;99.90
22153;DHT22;11242;50.536;12.688;2022-12-16T05:41:56;-4.50;99.90
22153;DHT22;11242;50.536;12.688;2022-12-16T05:44:40;-4.50;99.90
22153;DHT22;11242;50.536;12.688;2022-12-16T05:47:26;-4.40;99.90
22153;DHT22;11242;50.536;12.688;2022-12-16T05:50:11;-4.40;99.90
22153;DHT22;11242;50.536;12.688;2022-12-16T05:53:07;-4.30;99.90
22153;DHT22;11242;50.536;12.688;2022-12-16T05:55:51;-4.30;99.90
22153;DHT22;11242;50.536;12.688;2022-12-16T05:58:35;-4.40;99.90
22153;DHT22;11242;50.536;12.688;2022-12-16T06:01:19;-4.40;99.90
22153;DHT22;11242;50.536;12.688;2022-12-16T06:04:03;-4.40;99.90
22153;DHT22;11242;50.536;12.688;2022-12-16T06:06:47;-4.40;99.90
22153;DHT22;11242;50.536;12.688;2022-12-16T06:09:31;-4.50;99.90
22153;DHT22;11242;50.536;12.688;2022-12-16T06:12:16;-4.50;99.90
22153;DHT22;11242;50.536;12.688;2022-12-16T06:15:00;-4.60;99.90
22153;DHT22;11242;50.536;12.688;2022-12-16T06:17:48;-4.70;99.90
22153;DHT22;11242;50.536;12.688;2022-12-16T06:20:49;-4.80;99.90
22153;DHT22;11242;50.536;12.688;2022-12-16T06:23:34;-4.80;99.90
22153;DHT22;11242;50.536;12.688;2022-12-16T06:26:18;-4.80;99.90
22153;DHT22;11242;50.536;12.688;2022-12-16T06:29:02;-4.90;99.90
22153;DHT22;11242;50.536;12.688;2022-12-16T06:31:47;-4.90;99.90
22153;DHT22;11242;50.536;12.688;2022-12-16T06:34:31;-4.90;99.90
22153;DHT22;11242;50.536;12.688;2022-12-16T06:37:15;-4.90;99.90
22153;DHT22;11242;50.536;12.688;2022-12-16T06:39:59;-4.90;99.90
22153;DHT22;11242;50.536;12.688;2022-12-16T06:42:44;-4.90;99.90
22153;DHT22;11242;50.536;12.688;2022-12-16T06:45:28;-4.90;99.90
22153;DHT22;11242;50.536;12.688;2022-12-16T06:48:12;-4.90;99.90
22153;DHT22;11242;50.536;12.688;2022-12-16T06:50:57;-4.90;99.90
22153;DHT22;11242;50.536;12.688;2022-12-16T06:53:41;-4.90;99.90
22153;DHT22;11242;50.536;12.688;2022-12-16T06:56:25;-4.90;99.90
22153;DHT22;11242;50.536;12.688;2022-12-16T06:59:09;-4.90;99.90
22153;DHT22;11242;50.536;12.688;2022-12-16T07:01:54;-4.90;99.90
22153;DHT22;11242;50.536;12.688;2022-12-16T07:04:38;-4.80;99.90
22153;DHT22;11242;50.536;12.688;2022-12-16T07:07:24;-4.80;99.90
22153;DHT22;11242;50.536;12.688;2022-12-16T07:10:08;-4.80;99.90
22153;DHT22;11242;50.536;12.688;2022-12-16T07:12:59;-4.70;99.90
22153;DHT22;11242;50.536;12.688;2022-12-16T07:15:44;-4.70;99.90
22153;DHT22;11242;50.536;12.688;2022-12-16T07:18:28;-4.70;99.90
22153;DHT22;11242;50.536;12.688;2022-12-16T07:21:13;-4.70;99.90
22153;DHT22;11242;50.536;12.688;2022-12-16T07:23:57;-4.70;99.90
22153;DHT22;11242;50.536;12.688;2022-12-16T07:26:41;-4.70;99.90
22153;DHT22;11242;50.536;12.688;2022-12-16T07:29:25;-4.70;99.90
22153;DHT22;11242;50.536;12.688;2022-12-16T07:32:10;-4.80;99.90
22153;DHT22;11242;50.536;12.688;2022-12-16T07:34:54;-4.80;99.90
22153;DHT22;11242;50.536;12.688;2022-12-16T07:37:38;-4.80;99.90
22153;DHT22;11242;50.536;12.688;2022-12-16T07:40:25;-4.80;99.90
22153;DHT22;11242;50.536;12.688;2022-12-16T07:43:09;-4.80;99.90
22153;DHT22;11242;50.536;12.688;2022-12-16T07:45:56;-4.80;99.90
22153;DHT22;11242;50.536;12.688;2022-12-16T07:48:40;-4.80;99.90
22153;DHT22;11242;50.536;12.688;2022-12-16T07:51:24;-4.70;99.90
22153;DHT22;11242;50.536;12.688;2022-12-16T07:54:08;-4.70;99.90
22153;DHT22;11242;50.536;12.688;2022-12-16T07:56:54;-4.70;99.90
22153;DHT22;11242;50.536;12.688;2022-12-16T07:59:38;-4.60;99.90
22153;DHT22;11242;50.536;12.688;2022-12-16T08:02:24;-4.50;99.90
22153;DHT22;11242;50.536;12.688;2022-12-16T08:05:08;-4.50;99.90
22153;DHT22;11242;50.536;12.688;2022-12-16T08:07:55;-4.50;99.90
22153;DHT22;11242;50.536;12.688;2022-12-16T08:10:39;-4.40;99.90
22153;DHT22;11242;50.536;12.688;2022-12-16T08:13:25;-4.30;99.90
22153;DHT22;11242;50.536;12.688;2022-12-16T08:16:09;-4.20;99.90
22153;DHT22;11242;50.536;12.688;2022-12-16T08:18:54;-4.10;99.90
22153;DHT22;11242;50.536;12.688;2022-12-16T08:21:39;-4.00;99.90
22153;DHT22;11242;50.536;12.688;2022-12-16T08:24:24;-3.90;99.90
22153;DHT22;11242;50.536;12.688;2022-12-16T08:27:22;-3.90;99.90
22153;DHT22;11242;50.536;12.688;2022-12-16T08:30:07;-3.90;99.90
22153;DHT22;11242;50.536;12.688;2022-12-16T08:32:52;-4.10;99.90
22153;DHT22;11242;50.536;12.688;2022-12-16T08:35:36;-4.10;99.90
22153;DHT22;11242;50.536;12.688;2022-12-16T08:38:20;-4.10;99.90
22153;DHT22;11242;50.536;12.688;2022-12-16T08:41:04;-4.10;99.90
22153;DHT22;11242;50.536;12.688;2022-12-16T08:43:48;-4.00;99.90
22153;DHT22;11242;50.536;12.688;2022-12-16T08:46:33;-4.00;99.90
22153;DHT22;11242;50.536;12.688;2022-12-16T08:49:17;-4.10;99.90
22153;DHT22;11242;50.536;12.688;2022-12-16T08:52:01;-4.00;99.90
22153;DHT22;11242;50.536;12.688;2022-12-16T08:54:46;-4.00;99.90
22153;DHT22;11242;50.536;12.688;2022-12-16T08:57:30;-3.90;99.90
22153;DHT22;11242;50.536;12.688;2022-12-16T09:00:14;-3.70;99.90
22153;DHT22;11242;50.536;12.688;2022-12-16T09:02:58;-3.50;99.90
22153;DHT22;11242;50.536;12.688;2022-12-16T09:05:43;-3.30;99.90
22153;DHT22;11242;50.536;12.688;2022-12-16T09:08:27;-3.10;99.90
22153;DHT22;11242;50.536;12.688;2022-12-16T09:11:12;-3.10;99.90
22153;DHT22;11242;50.536;12.688;2022-12-16T09:13:56;-3.00;99.90
22153;DHT22;11242;50.536;12.688;2022-12-16T09:16:40;-2.90;99.90
22153;DHT22;11242;50.536;12.688;2022-12-16T09:19:25;-3.10;99.90
22153;DHT22;11242;50.536;12.688;2022-12-16T09:22:09;-3.00;99.90
22153;DHT22;11242;50.536;12.688;2022-12-16T09:24:54;-3.00;99.90
22153;DHT22;11242;50.536;12.688;2022-12-16T09:27:39;-3.00;99.90
22153;DHT22;11242;50.536;12.688;2022-12-16T09:30:24;-3.00;99.90
22153;DHT22;11242;50.536;12.688;2022-12-16T09:33:08;-3.00;99.90
22153;DHT22;11242;50.536;12.688;2022-12-16T09:35:57;-3.00;99.90
22153;DHT22;11242;50.536;12.688;2022-12-16T09:38:42;-3.10;99.90
22153;DHT22;11242;50.536;12.688;2022-12-16T09:47:47;-2.90;99.90
22153;DHT22;11242;50.536;12.688;2022-12-16T09:50:36;-2.90;99.90
22153;DHT22;11242;50.536;12.688;2022-12-16T09:53:22;-2.80;99.90
22153;DHT22;11242;50.536;12.688;2022-12-16T09:56:18;-3.10;99.90
22153;DHT22;11242;50.536;12.688;2022-12-16T09:59:14;-3.30;99.90
22153;DHT22;11242;50.536;12.688;2022-12-16T10:02:00;-3.10;99.90
22153;DHT22;11242;50.536;12.688;2022-12-16T10:04:49;-3.20;99.90
22153;DHT22;11242;50.536;12.688;2022-12-16T10:07:47;-3.10;99.90
22153;DHT22;11242;50.536;12.688;2022-12-16T10:13:51;-3.00;99.90
22153;DHT22;11242;50.536;12.688;2022-12-16T10:16:52;-2.80;99.90
22153;DHT22;11242;50.536;12.688;2022-12-16T10:20:03;-2.70;99.90
22153;DHT22;11242;50.536;12.688;2022-12-16T10:26:10;-2.60;99.90
22153;DHT22;11242;50.536;12.688;2022-12-16T10:32:32;-2.60;99.90
22153;DHT22;11242;50.536;12.688;2022-12-16T10:35:30;-2.60;99.90
22153;DHT22;11242;50.536;12.688;2022-12-16T10:41:25;-2.60;99.90
22153;DHT22;11242;50.536;12.688;2022-12-16T10:47:03;-3.40;99.90
22153;DHT22;11242;50.536;12.688;2022-12-16T10:49:47;-3.50;99.90
22153;DHT22;11242;50.536;12.688;2022-12-16T10:52:33;-3.80;99.90
22153;DHT22;11242;50.536;12.688;2022-12-16T10:55:41;-3.80;99.90
22153;DHT22;11242;50.536;12.688;2022-12-16T11:01:30;-3.90;99.90
22153;DHT22;11242;50.536;12.688;2022-12-16T11:07:38;-4.10;99.90
22153;DHT22;11242;50.536;12.688;2022-12-16T11:10:27;-4.30;99.90
22153;DHT22;11242;50.536;12.688;2022-12-16T11:13:20;-4.50;99.90
22153;DHT22;11242;50.536;12.688;2022-12-16T11:16:13;-4.40;99.90
22153;DHT22;11242;50.536;12.688;2022-12-16T11:18:59;-4.50;99.90
22153;DHT22;11242;50.536;12.688;2022-12-16T11:21:44;-4.60;99.90
22153;DHT22;11242;50.536;12.688;2022-12-16T11:24:28;-4.60;99.90
22153;DHT22;11242;50.536;12.688;2022-12-16T11:30:02;-4.50;99.90
22153;DHT22;11242;50.536;12.688;2022-12-16T11:32:55;-4.60;99.90
22153;DHT22;11242;50.536;12.688;2022-12-16T11:35:43;-4.50;99.90
22153;DHT22;11242;50.536;12.688;2022-12-16T11:41:51;-4.40;99.90
22153;DHT22;11242;50.536;12.688;2022-12-16T11:44:39;-4.20;99.90
22153;DHT22;11242;50.536;12.688;2022-12-16T11:47:46;-4.10;99.90
22153;DHT22;11242;50.536;12.688;2022-12-16T11:50:35;-4.00;99.90
22153;DHT22;11242;50.536;12.688;2022-12-16T11:56:16;-4.00;99.90
22153;DHT22;11242;50.536;12.688;2022-12-16T11:59:17;-3.90;99.90
22153;DHT22;11242;50.536;12.688;2022-12-16T12:02:29;-3.70;99.90
22153;DHT22;11242;50.536;12.688;2022-12-16T12:05:15;-3.70;99.90
22153;DHT22;11242;50.536;12.688;2022-12-16T12:08:18;-3.50;99.90
22153;DHT22;11242;50.536;12.688;2022-12-16T12:11:29;-3.50;99.90
22153;DHT22;11242;50.536;12.688;2022-12-16T12:14:25;-3.40;99.90
22153;DHT22;11242;50.536;12.688;2022-12-16T12:23:11;-3.80;99.90
22153;DHT22;11242;50.536;12.688;2022-12-16T12:26:20;-3.90;99.90
22153;DHT22;11242;50.536;12.688;2022-12-16T12:29:15;-3.90;99.90
22153;DHT22;11242;50.536;12.688;2022-12-16T12:38:24;-4.00;99.90
22153;DHT22;11242;50.536;12.688;2022-12-16T12:47:01;-4.20;99.90
22153;DHT22;11242;50.536;12.688;2022-12-16T12:50:07;-4.30;99.90
22153;DHT22;11242;50.536;12.688;2022-12-16T12:56:26;-4.50;99.90
22153;DHT22;11242;50.536;12.688;2022-12-16T12:59:21;-4.50;99.90
22153;DHT22;11242;50.536;12.688;2022-12-16T13:02:16;-4.40;99.90
22153;DHT22;11242;50.536;12.688;2022-12-16T13:05:02;-4.40;99.90
22153;DHT22;11242;50.536;12.688;2022-12-16T13:07:47;-4.50;99.90
22153;DHT22;11242;50.536;12.688;2022-12-16T13:10:36;-4.50;99.90
22153;DHT22;11242;50.536;12.688;2022-12-16T13:13:31;-4.60;99.90
22153;DHT22;11242;50.536;12.688;2022-12-16T13:16:54;-4.60;99.90
22153;DHT22;11242;50.536;12.688;2022-12-16T13:19:40;-4.70;99.90
22153;DHT22;11242;50.536;12.688;2022-12-16T13:22:35;-4.70;99.90
22153;DHT22;11242;50.536;12.688;2022-12-16T13:25:42;-4.70;99.90
22153;DHT22;11242;50.536;12.688;2022-12-16T13:28:31;-4.80;99.90
22153;DHT22;11242;50.536;12.688;2022-12-16T13:31:17;-4.60;99.90
22153;DHT22;11242;50.536;12.688;2022-12-16T13:34:24;-4.60;99.90
22153;DHT22;11242;50.536;12.688;2022-12-16T13:37:23;-4.60;99.90
22153;DHT22;11242;50.536;12.688;2022-12-16T13:40:20;-4.60;99.90
22153;DHT22;11242;50.536;12.688;2022-12-16T13:43:14;-4.70;99.90
22153;DHT22;11242;50.536;12.688;2022-12-16T13:48:50;-4.90;99.90
22153;DHT22;11242;50.536;12.688;2022-12-16T13:54:35;-5.00;99.90
22153;DHT22;11242;50.536;12.688;2022-12-16T13:57:23;-5.10;99.90
22153;DHT22;11242;50.536;12.688;2022-12-16T14:00:19;-5.10;99.90
22153;DHT22;11242;50.536;12.688;2022-12-16T14:03:17;-5.20;99.90
22153;DHT22;11242;50.536;12.688;2022-12-16T14:06:16;-5.30;99.90
22153;DHT22;11242;50.536;12.688;2022-12-16T14:09:29;-5.20;99.90
22153;DHT22;11242;50.536;12.688;2022-12-16T14:15:32;-5.20;99.90
22153;DHT22;11242;50.536;12.688;2022-12-16T14:21:12;-5.20;99.90
22153;DHT22;11242;50.536;12.688;2022-12-16T14:24:05;-5.20;99.90
22153;DHT22;11242;50.536;12.688;2022-12-16T14:26:50;-5.30;99.90
22153;DHT22;11242;50.536;12.688;2022-12-16T14:29:35;-5.30;99.90
22153;DHT22;11242;50.536;12.688;2022-12-16T14:32:30;-5.30;99.90
22153;DHT22;11242;50.536;12.688;2022-12-16T14:35:20;-5.30;99.90
22153;DHT22;11242;50.536;12.688;2022-12-16T14:38:25;-5.30;99.90
22153;DHT22;11242;50.536;12.688;2022-12-16T14:41:18;-5.40;99.90
22153;DHT22;11242;50.536;12.688;2022-12-16T14:44:05;-5.40;99.90
22153;DHT22;11242;50.536;12.688;2022-12-16T14:47:04;-5.40;99.90
22153;DHT22;11242;50.536;12.688;2022-12-16T14:49:50;-5.50;99.90
22153;DHT22;11242;50.536;12.688;2022-12-16T14:52:35;-5.60;99.90
22153;DHT22;11242;50.536;12.688;2022-12-16T14:55:28;-5.60;99.90
22153;DHT22;11242;50.536;12.688;2022-12-16T14:58:22;-5.70;99.90
22153;DHT22;11242;50.536;12.688;2022-12-16T15:01:16;-5.70;99.90
22153;DHT22;11242;50.536;12.688;2022-12-16T15:04:05;-5.70;99.90
22153;DHT22;11242;50.536;12.688;2022-12-16T15:06:53;-5.60;99.90
22153;DHT22;11242;50.536;12.688;2022-12-16T15:09:50;-5.50;99.90
22153;DHT22;11242;50.536;12.688;2022-12-16T15:12:42;-5.60;99.90
22153;DHT22;11242;50.536;12.688;2022-12-16T15:15:43;-5.70;99.90
22153;DHT22;11242;50.536;12.688;2022-12-16T15:18:37;-5.70;99.90
22153;DHT22;11242;50.536;12.688;2022-12-16T15:21:23;-5.70;99.90
22153;DHT22;11242;50.536;12.688;2022-12-16T15:24:09;-5.80;99.90
22153;DHT22;11242;50.536;12.688;2022-12-16T15:33:17;-5.90;99.90
22153;DHT22;11242;50.536;12.688;2022-12-16T15:36:03;-6.00;99.90
22153;DHT22;11242;50.536;12.688;2022-12-16T15:38:48;-6.00;99.90
22153;DHT22;11242;50.536;12.688;2022-12-16T15:41:35;-6.00;99.90
22153;DHT22;11242;50.536;12.688;2022-12-16T15:44:24;-6.10;99.90
22153;DHT22;11242;50.536;12.688;2022-12-16T15:47:32;-6.10;99.90
22153;DHT22;11242;50.536;12.688;2022-12-16T15:50:25;-6.20;99.90
22153;DHT22;11242;50.536;12.688;2022-12-16T15:53:37;-6.30;99.90
22153;DHT22;11242;50.536;12.688;2022-12-16T15:56:24;-6.30;99.90
22153;DHT22;11242;50.536;12.688;2022-12-16T16:01:57;-6.20;99.90
22153;DHT22;11242;50.536;12.688;2022-12-16T16:04:41;-6.10;99.90
22153;DHT22;11242;50.536;12.688;2022-12-16T16:07:25;-6.20;99.90
22153;DHT22;11242;50.536;12.688;2022-12-16T16:10:16;-6.10;99.90
22153;DHT22;11242;50.536;12.688;2022-12-16T16:13:03;-6.10;99.90
22153;DHT22;11242;50.536;12.688;2022-12-16T16:15:47;-6.20;99.90
22153;DHT22;11242;50.536;12.688;2022-12-16T16:18:32;-6.20;99.90
22153;DHT22;11242;50.536;12.688;2022-12-16T16:21:17;-6.20;99.90
22153;DHT22;11242;50.536;12.688;2022-12-16T16:24:02;-6.10;99.90
22153;DHT22;11242;50.536;12.688;2022-12-16T16:26:47;-6.20;99.90
22153;DHT22;11242;50.536;12.688;2022-12-16T16:29:32;-6.20;99.90
22153;DHT22;11242;50.536;12.688;2022-12-16T16:32:16;-6.30;99.90
22153;DHT22;11242;50.536;12.688;2022-12-16T16:35:03;-6.20;99.90
22153;DHT22;11242;50.536;12.688;2022-12-16T16:37:47;-6.30;99.90
22153;DHT22;11242;50.536;12.688;2022-12-16T16:40:41;-6.30;99.90
22153;DHT22;11242;50.536;12.688;2022-12-16T16:43:26;-6.20;99.90
22153;DHT22;11242;50.536;12.688;2022-12-16T16:46:34;-6.30;99.90
22153;DHT22;11242;50.536;12.688;2022-12-16T16:49:30;-6.30;99.90
22153;DHT22;11242;50.536;12.688;2022-12-16T16:52:20;-6.40;99.90
22153;DHT22;11242;50.536;12.688;2022-12-16T16:55:06;-6.40;99.90
22153;DHT22;11242;50.536;12.688;2022-12-16T16:57:51;-6.30;99.90
22153;DHT22;11242;50.536;12.688;2022-12-16T17:00:35;-6.40;99.90
22153;DHT22;11242;50.536;12.688;2022-12-16T17:03:19;-6.30;99.90
22153;DHT22;11242;50.536;12.688;2022-12-16T17:06:04;-6.30;99.90
22153;DHT22;11242;50.536;12.688;2022-12-16T17:08:48;-6.30;99.90
22153;DHT22;11242;50.536;12.688;2022-12-16T17:11:33;-6.30;99.90
22153;DHT22;11242;50.536;12.688;2022-12-16T17:14:19;-6.30;99.90
22153;DHT22;11242;50.536;12.688;2022-12-16T17:17:04;-6.40;99.90
22153;DHT22;11242;50.536;12.688;2022-12-16T17:19:48;-6.40;99.90
22153;DHT22;11242;50.536;12.688;2022-12-16T17:22:32;-6.40;99.90
22153;DHT22;11242;50.536;12.688;2022-12-16T17:25:17;-6.40;99.90
22153;DHT22;11242;50.536;12.688;2022-12-16T17:28:02;-6.50;99.90
22153;DHT22;11242;50.536;12.688;2022-12-16T17:30:46;-6.40;99.90
22153;DHT22;11242;50.536;12.688;2022-12-16T17:33:30;-6.30;99.90
22153;DHT22;11242;50.536;12.688;2022-12-16T17:36:16;-6.40;99.90
22153;DHT22;11242;50.536;12.688;2022-12-16T17:39:01;-6.30;99.90
22153;DHT22;11242;50.536;12.688;2022-12-16T17:41:45;-6.40;99.90
22153;DHT22;11242;50.536;12.688;2022-12-16T17:44:29;-6.30;99.90
22153;DHT22;11242;50.536;12.688;2022-12-16T17:47:14;-6.30;99.90
22153;DHT22;11242;50.536;12.688;2022-12-16T17:49:58;-6.40;99.90
22153;DHT22;11242;50.536;12.688;2022-12-16T17:52:43;-6.30;99.90
22153;DHT22;11242;50.536;12.688;2022-12-16T17:55:27;-6.30;99.90
22153;DHT22;11242;50.536;12.688;2022-12-16T17:58:11;-6.20;99.90
22153;DHT22;11242;50.536;12.688;2022-12-16T18:01:04;-6.20;99.90
22153;DHT22;11242;50.536;12.688;2022-12-16T18:03:49;-6.10;99.90
22153;DHT22;11242;50.536;12.688;2022-12-16T18:06:34;-6.20;99.90
22153;DHT22;11242;50.536;12.688;2022-12-16T18:09:19;-6.10;99.90
22153;DHT22;11242;50.536;12.688;2022-12-16T18:12:03;-6.20;99.90
22153;DHT22;11242;50.536;12.688;2022-12-16T18:14:47;-6.20;99.90
22153;DHT22;11242;50.536;12.688;2022-12-16T18:17:32;-6.10;99.90
22153;DHT22;11242;50.536;12.688;2022-12-16T18:20:16;-6.10;99.90
22153;DHT22;11242;50.536;12.688;2022-12-16T18:23:00;-6.10;99.90
22153;DHT22;11242;50.536;12.688;2022-12-16T18:26:00;-6.10;99.90
22153;DHT22;11242;50.536;12.688;2022-12-16T18:28:45;-6.10;99.90
22153;DHT22;11242;50.536;12.688;2022-12-16T18:31:29;-6.10;99.90
22153;DHT22;11242;50.536;12.688;2022-12-16T18:34:13;-6.10;99.90
22153;DHT22;11242;50.536;12.688;2022-12-16T18:36:58;-6.10;99.90
22153;DHT22;11242;50.536;12.688;2022-12-16T18:39:42;-6.10;99.90
22153;DHT22;11242;50.536;12.688;2022-12-16T18:42:27;-6.10;99.90
22153;DHT22;11242;50.536;12.688;2022-12-16T18:45:11;-6.10;99.90
22153;DHT22;11242;50.536;12.688;2022-12-16T18:47:55;-6.10;99.90
22153;DHT22;11242;50.536;12.688;2022-12-16T18:50:40;-6.10;99.90
22153;DHT22;11242;50.536;12.688;2022-12-16T18:53:27;-6.10;99.90
22153;DHT22;11242;50.536;12.688;2022-12-16T18:56:11;-6.10;99.90